カシュガル の空港の天気 - METARとTAF

カシュガル空港 ( ZWSH / KHG ) - 中国 新疆ウイグル自治区カシュガル市
飛行場実況気象(Metar)
観測時間04/27 12:00 CST (04/27 04:00 UTC)
風向・風速西北西 5m/s
視程10km以上
天気現象
なし
気温24℃
湿度5%
気圧1016hPa
METARZWSH 270400Z 29005MPS 250V330 CAVOK 24/M18 Q1016 NOSIG
過去の天気等 Google飛行場航空写真 Wunderground天気予報

過去48時間のMETAR

飛行場予報(TAF)
発表時間: 4/27 05:07 CST (4/26 21:07 UTC)
予報対象時間: 27日8時 CST ~ 28日8時 CST
風向・風速西北西 4m/s 瞬間風速 9m/s
視程10km以上
なし
TAF ZWSH 262107Z 2700/2724 30004G09MPS CAVOK TX28/2709Z TN17/2700Z